Terminal Aerodrome Forecast
Issued by NWS

Home | Current Version | Previous Version | Text Only | Print | Product List | Glossary Off
Versions: 1 2 3 4 5 6 7 8 9 10 11 12 13 14 15 16 17 18 19 20 21 22 23 24 25 26 27 28 29 30 31 32

012
FTUS43 KLOT 210306 AAA
TAFORD
TAF AMD
KORD 210306Z 2103/2206 09005KT P6SM SCT040
     FM210900 VRB04KT P6SM FEW040 BKN150
     FM211500 12006KT P6SM BKN100 PROB30 2122/2202 TSRA BKN050CB=

USA.gov is the U.S. government's official web portal to all federal, state and local government web resources and services.